Lock Haven, PA

1:41 PM EDT on August 21, 2014 (GMT -0400)
Clearfield-Lawrence | Change Station
CLOSE
Current Station
Airport
Location: Clearfield,
Elevation: 1516 ft
Nearby Weather Stations

Elev 1516 ft 41.05 °N, 78.41 °W | Updated 4 minutes ago

Light Thunderstorms and Rain
Light Thunderstorm Rain Mist
67 °F
Feels Like 67 °F
N
4
Wind Variable Wind from NW

Today
High -- | Low -- °F
--% Chance of Precip.
Yesterday
High -- | Low -- °F
Precip. -- in
6:25 AM 7:59 PM
Waning Crescent, 13% visible
Pressure 30.06 in
Visibility 2.5 miles
Clouds Few 1400 ft
Mostly Cloudy 2600 ft
Overcast 8000 ft
Dew Point 65 °F
Humidity 93%
Rainfall 0.09 in
Snow Depth Not available.
UV 3 out of 12
Pollen 8.20 out of 12
Air Quality Not available.
Flu Activity Not available.
SPECI KFIG 211737Z AUTO 31003KT 2 1/2SM -TSRA BR FEW014 BKN026 OVC080 19/18 A3006 RMK AO2 LTG DSNT E AND W TSB1656 P0074 T01940183

More Conditions Fewer Conditions

Pressure 30.06 in
Visibility 2.5 miles
Clouds Few 1400 ft
Mostly Cloudy 2600 ft
Overcast 8000 ft
Dew Point 65 °F
Humidity 93%
Rainfall 0.09 in
Snow Depth Not available.
UV 3 out of 12
Pollen 8.20 out of 12
Air Quality Not available.
Flu Activity Not available.
SPECI KFIG 211737Z AUTO 31003KT 2 1/2SM -TSRA BR FEW014 BKN026 OVC080 19/18 A3006 RMK AO2 LTG DSNT E AND W TSB1656 P0074 T01940183

More Conditions Fewer Conditions

Nowcast | as of 1:28 PM EDT on August 21, 2014

Scattered showers and thunderstorms will track across portions of the central mountains and middle Susquehanna River valley through mid afternoon. Thunderstorms are not expected to be strong...but brief heavy downpours and frequent lightning are possible. Winds gusts up to 30 mph may accompany any storms.

×

10-Day Weather Forecast

Almanac

Astronomy

Aug. 21, 2014 Rise Set
Actual Time 6:25 AM EDT 7:59 PM EDT
Civil Twilight 5:56 AM EDT 8:28 PM EDT
Nautical Twilight 5:20 AM EDT 9:03 PM EDT
Astronomical Twilight 4:43 AM EDT 9:40 PM EDT
Moon 2:52 AM EDT 5:27 PM EDT
Length of Visible Light 14h 32m
Length of Day
13h 34m
Tomorrow will be 2m 30s shorter.
Waning Crescent, 13% of the Moon is Illuminated
Today
Waning Crescent
Aug 25
New
Sep 2
First Quarter
Sep 8
Full
Sep 15
Last Quarter

Today's Extremes

State Highs State Lows

Community

WunderPhotos

Upload Photos

1,745,987 photos uploaded!

Nearby

Snow Depth

Station Depth Elevation
No new snow has been reported.

Earthquake Activity

City Distance Mag. Time & Date
No recent earthquake activity has been reported nearby.
Minimum magnitude displayed is 2.5.

Coastal Water Temperatures

Place Temperature
No Stations Reporting

Nearby Weather Stations